Time;durP1;ratioP1;P1;durP2;ratioP2;P2;SDS_P1;SDS_P2;PMS_P1;PMS_P2;Temp;Humidity;BMP_temperature;BMP_pressure;BME280_temperature;BME280_humidity;BME280_pressure;Samples;Min_cycle;Max_cycle;Signal;HPM_P1;HPM_P2
2023/07/25 00:00:25;;;;;;;6.15;2.60;;;13.60;99.90;;;;;;5027763;28;20060;-45
2023/07/25 00:02:51;;;;;;;9.43;2.20;;;13.50;99.90;;;;;;5029129;28;20041;-47
2023/07/25 00:05:17;;;;;;;9.68;3.03;;;13.50;99.90;;;;;;5028961;28;20390;-46
2023/07/25 00:07:42;;;;;;;9.57;2.58;;;13.50;99.90;;;;;;5027948;28;20141;-45
2023/07/25 00:10:08;;;;;;;10.50;2.65;;;13.40;99.90;;;;;;5028881;28;20567;-46
2023/07/25 00:12:37;;;;;;;9.18;3.47;;;13.40;99.90;;;;;;5027411;28;20049;-44
2023/07/25 00:15:04;;;;;;;7.90;2.47;;;13.40;99.90;;;;;;5028888;28;20045;-45
2023/07/25 00:17:30;;;;;;;15.00;2.72;;;13.40;99.90;;;;;;5027594;28;20064;-45
2023/07/25 00:19:56;;;;;;;9.57;2.88;;;13.30;99.90;;;;;;5028086;28;20033;-47
2023/07/25 00:22:22;;;;;;;5.53;2.50;;;13.30;99.90;;;;;;5028356;28;20379;-46
2023/07/25 00:24:47;;;;;;;5.05;2.60;;;13.30;99.90;;;;;;5027901;28;20037;-45
2023/07/25 00:27:13;;;;;;;6.47;2.75;;;13.30;99.90;;;;;;5026710;28;20513;-45
2023/07/25 00:29:38;;;;;;;8.50;2.67;;;13.30;99.90;;;;;;5028249;28;20052;-45
2023/07/25 00:32:04;;;;;;;6.88;2.70;;;13.30;99.90;;;;;;5028415;28;20041;-46
2023/07/25 00:34:30;;;;;;;4.75;2.45;;;13.20;99.90;;;;;;5027683;28;20042;-48
2023/07/25 00:36:55;;;;;;;11.95;2.83;;;13.20;99.90;;;;;;5027266;28;20056;-47
2023/07/25 00:39:21;;;;;;;10.18;2.75;;;13.20;99.90;;;;;;5028321;28;20064;-47
2023/07/25 00:41:47;;;;;;;8.60;4.05;;;13.10;99.90;;;;;;5028099;28;20477;-45
2023/07/25 00:44:12;;;;;;;6.53;3.03;;;13.10;99.90;;;;;;5027082;28;20061;-47
2023/07/25 00:46:40;;;;;;;6.20;2.78;;;13.10;99.90;;;;;;5027432;28;20033;-46
2023/07/25 00:49:05;;;;;;;6.10;2.33;;;13.10;99.90;;;;;;5028129;28;20077;-44
2023/07/25 00:51:32;;;;;;;7.80;2.85;;;13.10;99.90;;;;;;5025808;28;20521;-45
2023/07/25 00:53:58;;;;;;;6.47;3.20;;;13.10;99.90;;;;;;5028094;28;20076;-46
2023/07/25 00:56:24;;;;;;;6.35;3.53;;;13.10;99.90;;;;;;5027749;28;20065;-47
2023/07/25 00:58:49;;;;;;;4.72;2.80;;;13.10;99.90;;;;;;5027300;28;20033;-45
2023/07/25 01:01:15;;;;;;;5.80;2.40;;;13.10;99.90;;;;;;5028459;28;20038;-46
2023/07/25 01:03:41;;;;;;;7.60;2.40;;;13.10;99.90;;;;;;5027542;28;20029;-46
2023/07/25 01:06:13;;;;;;;6.15;3.05;;;13.00;99.90;;;;;;5028257;28;20048;-44
2023/07/25 01:08:53;;;;;;;9.18;3.22;;;13.10;99.90;;;;;;5026860;28;20083;-45
2023/07/25 01:11:20;;;;;;;11.85;3.83;;;13.10;99.90;;;;;;5026208;28;20208;-44
2023/07/25 01:13:46;;;;;;;10.02;3.08;;;13.10;99.90;;;;;;5027258;28;20045;-44
2023/07/25 01:16:15;;;;;;;5.10;2.58;;;13.10;99.90;;;;;;5028042;28;20083;-45
2023/07/25 01:18:42;;;;;;;7.07;3.78;;;13.00;99.90;;;;;;5026387;28;20098;-46
2023/07/25 01:21:08;;;;;;;10.02;2.67;;;13.10;99.90;;;;;;5027968;28;20047;-49
2023/07/25 01:23:36;;;;;;;6.75;3.67;;;13.00;99.90;;;;;;5027145;28;20181;-45
2023/07/25 01:26:02;;;;;;;7.80;2.95;;;13.00;99.90;;;;;;5028205;28;20065;-44
2023/07/25 01:28:28;;;;;;;6.68;3.15;;;13.00;99.90;;;;;;5027055;28;20040;-45
2023/07/25 01:30:53;;;;;;;6.75;3.35;;;13.00;99.90;;;;;;5028448;28;20094;-46
2023/07/25 01:33:19;;;;;;;6.10;3.08;;;13.00;99.90;;;;;;5027686;28;20041;-45
2023/07/25 01:35:45;;;;;;;8.88;3.58;;;12.90;99.90;;;;;;5027746;28;20048;-45
2023/07/25 01:38:10;;;;;;;8.40;3.50;;;12.90;99.90;;;;;;5026146;28;20033;-45
2023/07/25 01:40:39;;;;;;;5.28;2.67;;;12.80;99.90;;;;;;5027744;28;20200;-45
2023/07/25 01:43:05;;;;;;;6.82;2.97;;;12.80;99.90;;;;;;5027468;28;20278;-44
2023/07/25 01:45:31;;;;;;;5.45;3.03;;;12.70;99.90;;;;;;5027826;28;20507;-47
2023/07/25 01:47:57;;;;;;;7.55;2.78;;;12.70;99.90;;;;;;5030438;28;20050;-47
2023/07/25 01:50:22;;;;;;;8.70;2.22;;;12.70;99.90;;;;;;5031007;28;20049;-47
2023/07/25 01:52:48;;;;;;;7.82;3.05;;;12.70;99.90;;;;;;5031143;28;20387;-45
2023/07/25 01:55:14;;;;;;;7.78;2.33;;;12.60;99.90;;;;;;5030269;28;20033;-45
2023/07/25 01:57:39;;;;;;;8.98;2.28;;;12.60;99.90;;;;;;5030716;28;20037;-44
2023/07/25 02:00:05;;;;;;;5.90;2.78;;;12.50;99.90;;;;;;5030976;28;20029;-47
2023/07/25 02:02:31;;;;;;;;;;;12.50;99.90;;;;;;5030894;28;20124;-45
2023/07/25 02:04:56;;;;;;;6.97;3.13;;;12.50;99.90;;;;;;5030836;28;20005;-45
2023/07/25 02:07:22;;;;;;;7.82;3.08;;;12.40;99.90;;;;;;5030456;28;20483;-45
2023/07/25 02:09:48;;;;;;;6.32;2.70;;;12.50;99.90;;;;;;5030789;28;20506;-44
2023/07/25 02:12:13;;;;;;;8.38;3.28;;;12.40;99.90;;;;;;5031269;28;20029;-44
2023/07/25 02:14:39;;;;;;;7.07;2.83;;;12.40;99.90;;;;;;5030467;28;20075;-46
2023/07/25 02:17:05;;;;;;;8.48;3.55;;;12.40;99.90;;;;;;5029902;28;20033;-44
2023/07/25 02:19:31;;;;;;;7.18;3.30;;;12.40;99.90;;;;;;5030475;28;20025;-45
2023/07/25 02:21:56;;;;;;;8.38;2.72;;;12.40;99.90;;;;;;5031123;28;20103;-44
2023/07/25 02:24:22;;;;;;;9.97;3.23;;;12.40;99.90;;;;;;5030703;28;20030;-47
2023/07/25 02:26:47;;;;;;;7.72;3.67;;;12.40;99.90;;;;;;5029580;28;20387;-44
2023/07/25 02:29:13;;;;;;;7.53;2.60;;;12.30;99.90;;;;;;5027489;28;20061;-46
2023/07/25 02:31:38;;;;;;;8.90;2.85;;;12.30;99.90;;;;;;5029558;28;20284;-45
2023/07/25 02:34:04;;;;;;;8.65;3.70;;;12.30;99.90;;;;;;5029244;28;20491;-45
2023/07/25 02:36:30;;;;;;;9.57;2.65;;;12.30;99.90;;;;;;5029460;28;20049;-45
2023/07/25 02:38:55;;;;;;;7.95;2.63;;;12.30;99.90;;;;;;5030168;28;20031;-46
2023/07/25 02:41:21;;;;;;;12.02;3.90;;;12.30;99.90;;;;;;5030679;28;20068;-44
2023/07/25 02:43:46;;;;;;;5.03;3.00;;;12.30;99.90;;;;;;5030041;28;20501;-45
2023/07/25 02:46:12;;;;;;;6.72;3.15;;;12.30;99.90;;;;;;5030905;28;20026;-45
2023/07/25 02:48:38;;;;;;;5.05;3.30;;;12.30;99.90;;;;;;5029095;28;20464;-45
2023/07/25 02:51:03;;;;;;;6.87;3.47;;;12.40;99.90;;;;;;5030105;28;20451;-44
2023/07/25 02:53:29;;;;;;;8.90;3.60;;;12.40;99.90;;;;;;5029584;28;20292;-45
2023/07/25 02:55:55;;;;;;;6.07;2.97;;;12.40;99.90;;;;;;5030456;28;20041;-44
2023/07/25 02:58:21;;;;;;;7.78;3.95;;;12.50;99.90;;;;;;5029274;28;20452;-45
2023/07/25 03:00:48;;;;;;;7.10;3.10;;;12.50;99.90;;;;;;5029972;28;20499;-45
2023/07/25 03:03:13;;;;;;;7.50;3.38;;;12.50;99.90;;;;;;5028031;28;20490;-44
2023/07/25 03:05:39;;;;;;;5.00;2.67;;;12.50;99.90;;;;;;5029687;28;20048;-45
2023/07/25 03:08:05;;;;;;;12.55;2.78;;;12.50;99.90;;;;;;5029178;28;20034;-45
2023/07/25 03:10:32;;;;;;;7.40;2.92;;;12.40;99.90;;;;;;5029948;28;20419;-44
2023/07/25 03:12:57;;;;;;;7.97;3.65;;;12.40;99.90;;;;;;5029815;28;20076;-44
2023/07/25 03:15:23;;;;;;;10.82;3.67;;;12.40;99.90;;;;;;5029759;28;20110;-46
2023/07/25 03:17:49;;;;;;;8.73;3.65;;;12.30;99.90;;;;;;5028275;28;21243;-46
2023/07/25 03:20:14;;;;;;;6.22;3.53;;;12.30;99.90;;;;;;5029484;28;20132;-44
2023/07/25 03:22:40;;;;;;;4.83;4.03;;;12.30;99.90;;;;;;5029515;28;20037;-44
2023/07/25 03:25:06;;;;;;;9.23;4.63;;;12.30;99.90;;;;;;5029715;28;20280;-46
2023/07/25 03:27:31;;;;;;;6.63;3.67;;;12.30;99.90;;;;;;5028667;28;20036;-45
2023/07/25 03:29:57;;;;;;;7.45;4.30;;;12.30;99.90;;;;;;5029450;28;20567;-45
2023/07/25 03:32:23;;;;;;;7.43;3.53;;;12.30;99.90;;;;;;5029321;28;20107;-45
2023/07/25 03:34:48;;;;;;;6.28;3.70;;;12.30;99.90;;;;;;5029133;28;20041;-45
2023/07/25 03:37:14;;;;;;;8.77;3.97;;;12.30;99.90;;;;;;5028561;28;20041;-44
2023/07/25 03:39:39;;;;;;;6.10;3.65;;;12.30;99.90;;;;;;5029176;28;20490;-46
2023/07/25 03:42:05;;;;;;;8.90;3.75;;;12.30;99.90;;;;;;5028996;28;20073;-45
2023/07/25 03:44:31;;;;;;;9.43;2.88;;;12.30;99.90;;;;;;5028929;28;20311;-46
2023/07/25 03:46:56;;;;;;;6.50;3.42;;;12.30;99.90;;;;;;5027903;28;20033;-44
2023/07/25 03:49:22;;;;;;;10.38;4.38;;;12.30;99.90;;;;;;5028999;28;20076;-47
2023/07/25 03:51:48;;;;;;;10.20;4.18;;;12.30;99.90;;;;;;5029458;28;20129;-45
2023/07/25 03:54:14;;;;;;;5.10;3.27;;;12.30;99.90;;;;;;5028682;28;20045;-44
2023/07/25 03:56:39;;;;;;;12.57;3.85;;;12.30;99.90;;;;;;5027832;28;20280;-44
2023/07/25 03:59:05;;;;;;;6.85;3.28;;;12.30;99.90;;;;;;5027506;28;20033;-44
2023/07/25 04:01:31;;;;;;;6.80;4.10;;;12.30;99.90;;;;;;5026053;28;20490;-44
2023/07/25 04:03:56;;;;;;;9.93;3.60;;;12.30;99.90;;;;;;5027692;28;20498;-47
2023/07/25 04:06:22;;;;;;;5.00;3.20;;;12.30;99.90;;;;;;5029002;28;20110;-46
2023/07/25 04:08:47;;;;;;;6.87;3.83;;;12.30;99.90;;;;;;5027766;28;20289;-45
2023/07/25 04:11:13;;;;;;;10.60;4.23;;;12.30;99.90;;;;;;5028927;28;20364;-46
2023/07/25 04:13:39;;;;;;;8.65;4.45;;;12.30;99.90;;;;;;5026314;28;20583;-44
2023/07/25 04:16:05;;;;;;;9.18;3.58;;;12.30;99.90;;;;;;5028836;28;20041;-44
2023/07/25 04:18:31;;;;;;;13.95;4.57;;;12.30;99.90;;;;;;5027223;28;20068;-44
2023/07/25 04:20:57;;;;;;;9.43;4.13;;;12.30;99.90;;;;;;5028995;28;20491;-46
2023/07/25 04:23:22;;;;;;;6.95;4.22;;;12.30;99.90;;;;;;5028445;28;20077;-44
2023/07/25 04:25:49;;;;;;;10.52;4.68;;;12.30;99.90;;;;;;5028672;28;20064;-45
2023/07/25 04:28:15;;;;;;;7.70;4.65;;;12.40;99.90;;;;;;5027842;28;20033;-44
2023/07/25 04:30:40;;;;;;;10.70;4.82;;;12.40;99.90;;;;;;5028434;28;20107;-46
2023/07/25 04:33:06;;;;;;;10.60;4.70;;;12.50;99.90;;;;;;5027780;28;20105;-47
2023/07/25 04:35:32;;;;;;;9.73;5.00;;;12.50;99.90;;;;;;5028668;28;20034;-45
2023/07/25 04:37:57;;;;;;;8.65;4.50;;;12.60;99.90;;;;;;5027413;28;20044;-47
2023/07/25 04:40:24;;;;;;;9.68;4.72;;;12.60;99.90;;;;;;5028525;28;20033;-45
2023/07/25 04:42:49;;;;;;;;;;;12.60;99.90;;;;;;5028222;28;20053;-44
2023/07/25 04:45:15;;;;;;;8.43;3.85;;;12.60;99.90;;;;;;5028453;28;19925;-44
2023/07/25 04:47:40;;;;;;;7.55;4.45;;;12.60;99.90;;;;;;5024929;28;20376;-45
2023/07/25 04:50:06;;;;;;;7.18;4.63;;;12.70;99.90;;;;;;5028507;28;20403;-44
2023/07/25 04:52:32;;;;;;;9.18;3.63;;;12.70;99.90;;;;;;5028159;28;20042;-45
2023/07/25 04:54:58;;;;;;;9.20;4.65;;;12.80;99.90;;;;;;5028517;28;20087;-44
2023/07/25 04:57:27;;;;;;;8.93;4.32;;;12.80;99.90;;;;;;5027569;28;20572;-45
2023/07/25 04:59:53;;;;;;;9.25;4.22;;;12.90;99.90;;;;;;5027664;28;20053;-45
2023/07/25 05:02:20;;;;;;;7.15;4.13;;;12.90;99.90;;;;;;5028231;28;20402;-45
2023/07/25 05:04:46;;;;;;;8.93;4.55;;;13.00;99.90;;;;;;5027958;28;20055;-45
2023/07/25 05:07:13;;;;;;;8.27;5.03;;;13.00;99.90;;;;;;5027394;28;20030;-45
2023/07/25 05:09:39;;;;;;;7.45;4.78;;;13.10;99.90;;;;;;5026879;28;20383;-45
2023/07/25 05:12:05;;;;;;;10.50;4.68;;;13.10;99.90;;;;;;5026952;28;20124;-44
2023/07/25 05:14:31;;;;;;;14.48;4.18;;;13.10;99.90;;;;;;5027340;28;20033;-46
2023/07/25 05:16:56;;;;;;;10.82;4.88;;;13.20;99.90;;;;;;5024756;28;20041;-46
2023/07/25 05:19:23;;;;;;;8.07;4.35;;;13.20;99.90;;;;;;5027679;28;20038;-47
2023/07/25 05:21:48;;;;;;;14.35;5.53;;;13.20;99.90;;;;;;5030470;28;20040;-44
2023/07/25 05:24:14;;;;;;;8.07;5.13;;;13.20;99.90;;;;;;5031959;28;20041;-45
2023/07/25 05:26:41;;;;;;;11.27;4.80;;;13.20;99.90;;;;;;5031087;28;20780;-45
2023/07/25 05:29:06;;;;;;;13.38;5.28;;;13.30;99.90;;;;;;5031753;28;20379;-46
2023/07/25 05:31:32;;;;;;;13.80;6.43;;;13.30;99.90;;;;;;5031597;28;20168;-45
2023/07/25 05:33:58;;;;;;;14.50;5.38;;;13.40;99.90;;;;;;5030029;28;20111;-44
2023/07/25 05:36:23;;;;;;;7.60;4.50;;;13.40;99.90;;;;;;5031131;28;20042;-45
2023/07/25 05:38:49;;;;;;;12.93;5.63;;;13.50;99.90;;;;;;5030411;28;20072;-47
2023/07/25 05:41:14;;;;;;;9.60;5.13;;;13.50;99.90;;;;;;5029465;28;20037;-45
2023/07/25 05:43:40;;;;;;;11.02;4.90;;;13.60;99.90;;;;;;5030437;28;20616;-45
2023/07/25 05:46:07;;;;;;;12.23;4.80;;;13.60;99.90;;;;;;5028649;28;20050;-45
2023/07/25 05:48:33;;;;;;;9.90;4.78;;;13.60;99.90;;;;;;5026471;28;20048;-47
2023/07/25 05:50:58;;;;;;;8.48;5.00;;;13.70;99.90;;;;;;5028577;28;20200;-46
2023/07/25 05:53:24;;;;;;;7.45;4.05;;;13.70;99.90;;;;;;5024078;28;20091;-44
2023/07/25 05:55:49;;;;;;;8.80;4.50;;;13.80;99.90;;;;;;5028419;28;20415;-52
2023/07/25 05:58:16;;;;;;;15.80;4.97;;;13.90;99.90;;;;;;5026591;28;20038;-47
2023/07/25 06:00:43;;;;;;;8.55;3.40;;;14.00;99.90;;;;;;5027594;28;20045;-52
2023/07/25 06:03:13;;;;;;;15.60;4.60;;;14.00;99.90;;;;;;5014934;28;20037;-52
2023/07/25 06:05:39;;;;;;;8.52;3.97;;;14.10;99.90;;;;;;5021903;28;20410;-46
2023/07/25 06:08:05;;;;;;;6.57;3.67;;;14.20;99.90;;;;;;5030825;28;20453;-46
2023/07/25 06:10:31;;;;;;;11.98;3.47;;;14.20;99.90;;;;;;5030246;28;20052;-45
2023/07/25 06:12:57;;;;;;;11.75;3.95;;;14.30;99.90;;;;;;5024230;28;20042;-47
2023/07/25 06:15:22;;;;;;;11.07;4.05;;;14.40;99.90;;;;;;5031606;28;20107;-47
2023/07/25 06:17:48;;;;;;;12.23;3.65;;;14.50;99.90;;;;;;5031017;28;20048;-45
2023/07/25 06:20:14;;;;;;;5.80;2.95;;;14.60;99.90;;;;;;5030047;28;20108;-45
2023/07/25 06:22:39;;;;;;;9.98;3.75;;;14.70;99.90;;;;;;5031183;28;20502;-47
2023/07/25 06:25:08;;;;;;;7.78;2.80;;;14.80;99.90;;;;;;5031484;28;20335;-47
2023/07/25 06:27:34;;;;;;;6.90;2.83;;;14.90;99.90;;;;;;5030312;28;20404;-46
2023/07/25 06:30:00;;;;;;;;;;;15.00;99.90;;;;;;5031949;28;20094;-45
2023/07/25 06:32:26;;;;;;;7.05;2.90;;;15.20;99.90;;;;;;5029411;28;19917;-44
2023/07/25 06:34:52;;;;;;;9.18;2.67;;;15.20;99.90;;;;;;5030251;28;20036;-46
2023/07/25 06:37:17;;;;;;;8.95;2.50;;;15.30;99.90;;;;;;5027550;28;20067;-45
2023/07/25 06:39:43;;;;;;;14.27;2.80;;;15.40;99.90;;;;;;5030217;28;20034;-45
2023/07/25 06:42:09;;;;;;;10.18;2.42;;;15.40;99.90;;;;;;5030547;28;20041;-46
2023/07/25 06:44:34;;;;;;;12.77;1.80;;;15.50;99.90;;;;;;5027656;28;20084;-45
2023/07/25 06:47:00;;;;;;;9.00;1.60;;;15.70;99.90;;;;;;5026933;28;20033;-47
2023/07/25 06:49:26;;;;;;;9.55;1.42;;;15.80;99.90;;;;;;5030155;28;20437;-45
2023/07/25 06:51:51;;;;;;;8.43;1.35;;;16.00;99.90;;;;;;5031774;28;20030;-45
2023/07/25 06:54:18;;;;;;;6.57;0.95;;;16.10;99.90;;;;;;5031427;28;20041;-45
2023/07/25 06:56:43;;;;;;;8.93;1.10;;;16.20;99.90;;;;;;5029004;28;20041;-45
2023/07/25 06:59:09;;;;;;;5.55;1.00;;;16.30;99.90;;;;;;5029777;28;20060;-46
2023/07/25 07:01:34;;;;;;;9.10;1.70;;;16.40;99.90;;;;;;5028233;28;20068;-45
2023/07/25 07:04:00;;;;;;;6.90;1.25;;;16.50;99.90;;;;;;5028171;28;20056;-45
2023/07/25 07:06:26;;;;;;;7.45;1.27;;;16.50;99.90;;;;;;5030737;28;20033;-46
2023/07/25 07:08:51;;;;;;;6.35;1.20;;;16.70;99.90;;;;;;5030519;28;20404;-47
2023/07/25 07:11:18;;;;;;;9.13;1.77;;;16.80;99.90;;;;;;5030756;28;20037;-47
2023/07/25 07:13:43;;;;;;;7.05;1.15;;;16.90;99.90;;;;;;5030614;28;20072;-47
2023/07/25 07:16:09;;;;;;;7.97;1.13;;;17.00;99.90;;;;;;5031040;28;20041;-46
2023/07/25 07:18:35;;;;;;;5.22;0.70;;;17.10;99.90;;;;;;5029337;28;20041;-47
2023/07/25 07:21:01;;;;;;;9.05;1.08;;;17.20;99.90;;;;;;5030639;28;20376;-46
2023/07/25 07:23:26;;;;;;;5.35;0.65;;;17.30;99.90;;;;;;5030551;28;20123;-46
2023/07/25 07:25:52;;;;;;;7.45;0.88;;;17.30;99.90;;;;;;5030261;28;20041;-45
2023/07/25 07:28:17;;;;;;;8.75;0.57;;;17.30;99.90;;;;;;5029667;28;20025;-46
2023/07/25 07:30:55;;;;;;;6.10;0.50;;;17.40;99.90;;;;;;5030075;28;20128;-45
2023/07/25 07:33:20;;;;;;;4.65;0.50;;;17.50;99.90;;;;;;5023715;28;20046;-46
2023/07/25 07:35:46;;;;;;;6.53;0.68;;;17.50;99.90;;;;;;5023214;28;20041;-46
2023/07/25 07:38:12;;;;;;;9.55;0.88;;;17.60;99.90;;;;;;5027987;28;20410;-45
2023/07/25 07:40:38;;;;;;;6.55;0.80;;;17.70;99.90;;;;;;5020923;28;20038;-47
2023/07/25 07:43:04;;;;;;;4.18;0.47;;;17.80;99.90;;;;;;5026498;28;20053;-45
2023/07/25 07:45:32;;;;;;;6.88;0.65;;;17.90;99.90;;;;;;5030080;28;20026;-46
2023/07/25 07:47:58;;;;;;;4.47;0.63;;;18.00;99.90;;;;;;5026365;28;20033;-47
2023/07/25 07:50:23;;;;;;;5.45;0.65;;;18.00;99.90;;;;;;5023860;28;20045;-49
2023/07/25 07:52:49;;;;;;;5.40;0.43;;;18.10;99.90;;;;;;5029587;28;20029;-48
2023/07/25 07:55:15;;;;;;;5.40;0.50;;;18.10;99.90;;;;;;5030084;28;20041;-49
2023/07/25 07:57:45;;;;;;;5.25;0.82;;;18.20;99.90;;;;;;5029536;28;20052;-46
2023/07/25 08:00:13;;;;;;;3.83;0.35;;;18.30;99.90;;;;;;5030091;28;20037;-47
2023/07/25 08:02:43;;;;;;;6.68;0.40;;;18.40;99.90;;;;;;5027896;28;20049;-46
2023/07/25 08:05:09;;;;;;;3.22;0.68;;;18.50;99.90;;;;;;5025121;28;20117;-48
2023/07/25 08:07:35;;;;;;;6.55;0.50;;;18.50;99.90;;;;;;5014621;28;20034;-50
2023/07/25 08:10:01;;;;;;;6.13;0.40;;;18.70;99.90;;;;;;5018217;28;20053;-49
2023/07/25 08:12:27;;;;;;;;;;;18.70;99.90;;;;;;5022734;28;20562;-51
2023/07/25 08:14:52;;;;;;;3.90;0.60;;;18.70;99.90;;;;;;5023245;28;20020;-50
2023/07/25 08:17:18;;;;;;;3.60;0.32;;;18.80;99.90;;;;;;5020292;28;20533;-49
2023/07/25 08:19:44;;;;;;;3.40;0.60;;;18.90;99.90;;;;;;5019257;28;20030;-47
2023/07/25 08:22:10;;;;;;;8.10;0.32;;;19.00;99.90;;;;;;5026470;28;20048;-47
2023/07/25 08:24:36;;;;;;;3.05;0.40;;;19.00;99.90;;;;;;5021419;28;20041;-48
2023/07/25 08:27:02;;;;;;;3.85;0.38;;;19.00;99.90;;;;;;5024365;28;20075;-50
2023/07/25 08:29:28;;;;;;;2.47;0.40;;;19.10;99.90;;;;;;5021843;28;20499;-47
2023/07/25 08:31:53;;;;;;;5.28;0.40;;;19.10;99.90;;;;;;5024488;28;20103;-47
2023/07/25 08:34:19;;;;;;;;;;;19.20;99.90;;;;;;5019117;28;20052;-48
2023/07/25 08:36:45;;;;;;;1.38;0.38;;;19.30;99.90;;;;;;5026359;28;19964;-49
2023/07/25 08:39:11;;;;;;;4.68;0.30;;;19.40;99.90;;;;;;5029335;28;20033;-49
2023/07/25 08:41:39;;;;;;;;;;;19.30;99.90;;;;;;5030134;28;20410;-49
2023/07/25 08:44:09;;;;;;;2.58;0.30;;;19.30;99.90;;;;;;5029237;28;19960;-47
2023/07/25 08:46:36;;;;;;;1.38;0.10;;;19.20;99.90;;;;;;5028932;28;20123;-49
2023/07/25 08:49:03;;;;;;;5.47;0.40;;;19.10;99.90;;;;;;5029439;28;20128;-49
2023/07/25 08:51:33;;;;;;;2.47;0.20;;;19.10;99.90;;;;;;5029601;28;20049;-49
2023/07/25 08:54:08;;;;;;;4.90;0.30;;;19.20;99.90;;;;;;5029156;28;20040;-48
2023/07/25 08:56:35;;;;;;;3.63;0.35;;;19.20;99.90;;;;;;5032152;28;20119;-47
2023/07/25 08:59:03;;;;;;;1.73;0.38;;;19.30;99.90;;;;;;5033761;28;20569;-47
2023/07/25 09:01:30;;;;;;;2.72;0.28;;;19.30;99.90;;;;;;5033182;28;20267;-49
2023/07/25 09:03:56;;;;;;;4.22;0.30;;;19.30;99.90;;;;;;5024572;28;20202;-49
2023/07/25 09:06:22;;;;;;;;;;;19.20;99.90;;;;;;5031377;28;20414;-48
2023/07/25 09:08:47;;;;;;;3.80;0.20;;;19.10;99.90;;;;;;5021663;28;19918;-49
2023/07/25 09:11:14;;;;;;;;;;;19.10;99.90;;;;;;5025050;28;20049;-51
2023/07/25 09:13:40;;;;;;;5.55;0.30;;;19.10;99.90;;;;;;5021723;28;20307;-50
2023/07/25 09:16:05;;;;;;;;;;;19.20;99.90;;;;;;5025313;28;20044;-49
2023/07/25 09:18:31;;;;;;;2.90;0.40;;;19.40;99.90;;;;;;5023656;28;20502;-49
2023/07/25 09:20:57;;;;;;;1.92;0.20;;;19.40;99.90;;;;;;5032518;28;20042;-51
2023/07/25 09:23:23;;;;;;;3.03;0.40;;;19.40;99.90;;;;;;5023878;28;20033;-50
2023/07/25 09:25:50;;;;;;;8.02;0.43;;;19.30;99.90;;;;;;5023419;28;20034;-50
2023/07/25 09:28:16;;;;;;;8.27;0.50;;;19.20;99.90;;;;;;5029602;28;20033;-51
2023/07/25 09:30:48;;;;;;;2.45;0.30;;;19.20;99.90;;;;;;5023477;28;20410;-52
2023/07/25 09:33:25;;;;;;;7.13;0.40;;;19.30;99.90;;;;;;5023804;28;20060;-53
2023/07/25 09:35:52;;;;;;;3.45;0.50;;;19.40;99.90;;;;;;5024716;28;20034;-51
2023/07/25 09:38:18;;;;;;;6.28;0.45;;;19.40;99.90;;;;;;5025343;28;20526;-50
2023/07/25 09:40:45;;;;;;;3.45;0.20;;;19.40;99.90;;;;;;5019449;28;20077;-50
2023/07/25 09:43:23;;;;;;;2.53;0.28;;;19.40;99.90;;;;;;5031531;28;20065;-51
2023/07/25 09:45:50;;;;;;;6.25;0.30;;;19.40;99.60;;;;;;5019885;28;20038;-52
2023/07/25 09:48:16;;;;;;;3.42;0.57;;;19.40;99.90;;;;;;5021625;28;20036;-51
2023/07/25 09:50:44;;;;;;;3.25;0.20;;;19.60;99.90;;;;;;5028662;28;20041;-50
2023/07/25 09:53:13;;;;;;;4.90;0.30;;;19.80;99.90;;;;;;5018438;28;20042;-50
2023/07/25 09:55:40;;;;;;;4.03;0.30;;;20.00;99.90;;;;;;5029215;28;20552;-52
2023/07/25 09:58:05;;;;;;;0.68;0.20;;;20.10;99.40;;;;;;5023725;28;20041;-51
2023/07/25 10:00:31;;;;;;;5.38;0.20;;;20.10;99.30;;;;;;5026461;28;20394;-50
2023/07/25 10:03:00;;;;;;;1.38;0.30;;;20.00;99.00;;;;;;5031234;28;20148;-51
2023/07/25 10:05:28;;;;;;;2.63;0.20;;;20.00;99.20;;;;;;5020340;28;20037;-51
2023/07/25 10:07:59;;;;;;;2.90;0.35;;;19.80;98.90;;;;;;5029578;28;20175;-50
2023/07/25 10:10:26;;;;;;;5.63;0.20;;;19.70;99.30;;;;;;5022034;28;20483;-51
2023/07/25 10:12:53;;;;;;;3.63;0.30;;;19.60;99.30;;;;;;5025398;28;20499;-51
2023/07/25 10:15:19;;;;;;;3.65;0.30;;;19.70;99.90;;;;;;5024645;28;20041;-50
2023/07/25 10:17:45;;;;;;;0.80;0.30;;;19.90;99.90;;;;;;5029057;28;20041;-51
2023/07/25 10:20:22;;;;;;;2.80;0.30;;;19.90;99.50;;;;;;5029842;28;20483;-51
2023/07/25 10:22:48;;;;;;;5.90;0.30;;;19.90;98.40;;;;;;5031711;28;20056;-51
2023/07/25 10:25:26;;;;;;;1.85;0.30;;;19.70;98.80;;;;;;5032085;28;20045;-52
2023/07/25 10:27:57;;;;;;;4.55;0.35;;;19.60;98.40;;;;;;5031151;28;20140;-50
2023/07/25 10:30:28;;;;;;;2.30;0.30;;;19.50;98.80;;;;;;5025215;28;20049;-51
2023/07/25 10:32:58;;;;;;;2.70;0.20;;;19.60;99.10;;;;;;5007326;28;20049;-53
2023/07/25 10:35:49;;;;;;;6.22;0.35;;;19.80;98.60;;;;;;5025539;28;20600;-54
2023/07/25 10:38:39;;;;;;;4.30;0.13;;;20.00;97.60;;;;;;5019140;28;20038;-51
2023/07/25 10:41:13;;;;;;;1.20;0.20;;;20.00;97.30;;;;;;5023087;28;20056;-51
2023/07/25 10:43:55;;;;;;;2.38;0.30;;;20.00;97.60;;;;;;5025013;28;20038;-52
2023/07/25 10:46:29;;;;;;;4.55;0.20;;;19.90;97.80;;;;;;5022303;28;20491;-51
2023/07/25 10:49:00;;;;;;;0.47;0.10;;;19.80;97.70;;;;;;5019880;28;20072;-51
2023/07/25 10:51:48;;;;;;;4.07;0.40;;;19.90;97.70;;;;;;5026492;28;20133;-50
2023/07/25 10:54:17;;;;;;;0.85;0.20;;;20.00;96.60;;;;;;5022134;28;20156;-51
2023/07/25 10:57:16;;;;;;;4.00;0.20;;;20.20;96.80;;;;;;5021275;28;20045;-51
2023/07/25 11:00:04;;;;;;;2.20;0.30;;;20.30;96.30;;;;;;5018523;28;20032;-53
2023/07/25 11:02:40;;;;;;;1.38;0.28;;;20.50;95.90;;;;;;5018682;28;20097;-51
2023/07/25 11:05:12;;;;;;;2.30;0.25;;;20.50;96.50;;;;;;5023226;28;20211;-50
2023/07/25 11:07:46;;;;;;;1.55;0.20;;;20.60;96.70;;;;;;5027070;28;20129;-50
2023/07/25 11:10:19;;;;;;;1.38;0.17;;;20.60;95.80;;;;;;5024388;28;20474;-51
2023/07/25 11:12:53;;;;;;;1.10;0.10;;;20.70;95.70;;;;;;5025699;28;20132;-51
2023/07/25 11:15:19;;;;;;;0.73;0.10;;;20.70;95.40;;;;;;5025821;28;20770;-51
2023/07/25 11:17:44;;;;;;;;;;;20.60;95.10;;;;;;5013657;28;20044;-51
2023/07/25 11:20:17;;;;;;;1.85;0.17;;;20.50;94.60;;;;;;5026433;28;19924;-51
2023/07/25 11:22:43;;;;;;;1.05;0.30;;;20.50;95.00;;;;;;5027251;28;20056;-51
2023/07/25 11:25:09;;;;;;;;;;;20.60;95.60;;;;;;5031024;28;20121;-50
2023/07/25 11:27:42;;;;;;;3.25;0.30;;;20.70;95.70;;;;;;5026994;28;20016;-48
2023/07/25 11:30:15;;;;;;;3.85;0.20;;;20.80;94.60;;;;;;5028792;28;20389;-51
2023/07/25 11:32:52;;;;;;;3.83;0.20;;;21.00;95.40;;;;;;5027611;28;20052;-51
2023/07/25 11:35:18;;;;;;;2.75;0.20;;;21.10;94.40;;;;;;5024403;28;20037;-52
2023/07/25 11:37:45;;;;;;;1.20;0.10;;;21.30;95.20;;;;;;5029412;28;20065;-51
2023/07/25 11:40:21;;;;;;;1.90;0.50;;;21.50;95.10;;;;;;5030069;28;20376;-53
2023/07/25 11:42:48;;;;;;;7.65;0.38;;;21.50;94.80;;;;;;5029928;28;20053;-51
2023/07/25 11:45:16;;;;;;;2.78;0.35;;;21.40;94.90;;;;;;5030685;28;20041;-51
2023/07/25 11:47:48;;;;;;;1.83;0.30;;;21.20;94.80;;;;;;5029678;28;20075;-51
2023/07/25 11:50:15;;;;;;;1.45;0.22;;;21.10;94.70;;;;;;5030322;28;20045;-50
2023/07/25 11:52:43;;;;;;;1.42;0.10;;;20.90;94.70;;;;;;5029399;28;20383;-51
2023/07/25 11:55:10;;;;;;;2.15;0.20;;;20.80;95.30;;;;;;5029036;28;20042;-51
2023/07/25 11:57:37;;;;;;;2.53;0.20;;;21.00;95.70;;;;;;5025290;28;20033;-51
2023/07/25 12:00:06;;;;;;;2.03;0.20;;;21.10;95.90;;;;;;5030405;28;20033;-51
2023/07/25 12:02:42;;;;;;;5.55;1.05;;;21.40;96.30;;;;;;5029760;28;20041;-53
2023/07/25 12:05:29;;;;;;;2.47;0.20;;;21.50;94.70;;;;;;5029901;28;20037;-53
2023/07/25 12:08:00;;;;;;;2.38;0.30;;;21.50;94.70;;;;;;5029561;28;20037;-51
2023/07/25 12:10:30;;;;;;;1.05;0.17;;;21.50;94.80;;;;;;5020595;28;20061;-51
2023/07/25 12:12:57;;;;;;;4.10;0.40;;;21.50;94.40;;;;;;5023183;28;20048;-51
2023/07/25 12:15:40;;;;;;;1.33;0.40;;;21.40;94.40;;;;;;5028300;28;20041;-51
2023/07/25 12:18:12;;;;;;;3.00;0.35;;;21.30;93.70;;;;;;5009577;28;20049;-50
2023/07/25 12:20:40;;;;;;;4.70;0.30;;;21.20;94.50;;;;;;5028324;28;20144;-50
2023/07/25 12:23:06;;;;;;;3.13;0.10;;;21.10;95.20;;;;;;5029605;28;20124;-51
2023/07/25 12:25:35;;;;;;;2.60;0.20;;;21.00;94.10;;;;;;5029114;28;20061;-51
2023/07/25 12:28:01;;;;;;;2.20;0.20;;;20.80;94.00;;;;;;5028320;28;20049;-51
2023/07/25 12:30:27;;;;;;;;;;;20.70;94.70;;;;;;5029565;28;20056;-52
2023/07/25 12:32:52;;;;;;;0.38;0.20;;;20.80;95.90;;;;;;5029774;28;19925;-51
2023/07/25 12:35:18;;;;;;;;;;;21.00;96.00;;;;;;5030060;28;20048;-50
2023/07/25 12:37:44;;;;;;;7.47;0.30;;;21.10;94.80;;;;;;5029211;28;19999;-52
2023/07/25 12:40:10;;;;;;;2.10;0.17;;;21.20;95.30;;;;;;5027511;28;20073;-51
2023/07/25 12:42:36;;;;;;;;;;;21.40;94.80;;;;;;5027419;28;20167;-51
2023/07/25 12:45:05;;;;;;;2.30;0.22;;;21.50;94.60;;;;;;5025178;28;19924;-53
2023/07/25 12:47:32;;;;;;;0.85;0.20;;;21.50;94.10;;;;;;5024262;28;20563;-51
2023/07/25 12:49:58;;;;;;;3.53;0.30;;;21.30;94.00;;;;;;5024226;28;20049;-53